createdAt,value
2022-09-02T00:01:03.886Z,96.801758
2022-09-02T00:02:12.646Z,96.697998
2022-09-02T00:03:21.504Z,96.905518
2022-09-02T00:04:30.914Z,96.905518
2022-09-02T00:05:40.592Z,96.801758
2022-09-02T00:06:49.252Z,96.697998
2022-09-02T00:07:57.962Z,96.697998
2022-09-02T00:09:07.624Z,96.905518
2022-09-02T00:10:16.286Z,96.801758
2022-09-02T00:11:24.968Z,96.697998
2022-09-02T00:12:34.723Z,96.697998
2022-09-02T00:13:44.423Z,96.697998
2022-09-02T00:14:54.078Z,96.697998
2022-09-02T00:16:01.870Z,96.801758
2022-09-02T00:17:10.423Z,97.003174
2022-09-02T00:18:20.066Z,96.801758
2022-09-02T00:19:29.780Z,96.697998
2022-09-02T00:20:39.423Z,96.697998
2022-09-02T00:21:48.078Z,96.801758
2022-09-02T00:22:56.724Z,96.697998
2022-09-02T00:24:06.387Z,96.801758
2022-09-02T00:25:13.069Z,96.905518
2022-09-02T00:26:20.734Z,97.003174
2022-09-02T00:27:30.486Z,96.905518
2022-09-02T00:28:39.130Z,96.905518
2022-09-02T00:29:48.780Z,96.905518
2022-09-02T00:30:57.437Z,97.003174
2022-09-02T00:32:06.163Z,97.155762
2022-09-02T00:33:15.777Z,97.155762
2022-09-02T00:34:24.425Z,97.155762
2022-09-02T00:35:34.101Z,97.155762
2022-09-02T00:36:41.846Z,97.460938
2022-09-02T00:37:48.507Z,97.558594
2022-09-02T00:38:58.203Z,97.662354
2022-09-02T00:40:06.925Z,97.558594
2022-09-02T00:41:15.515Z,97.662354
2022-09-02T00:42:24.269Z,97.766113
2022-09-02T00:43:32.925Z,97.766113
2022-09-02T00:44:42.596Z,97.662354
2022-09-02T00:45:50.287Z,97.766113
2022-09-02T00:46:58.906Z,97.869873
2022-09-02T00:48:08.578Z,97.869873
2022-09-02T00:49:17.241Z,97.766113
2022-09-02T00:50:25.910Z,97.766113
2022-09-02T00:51:34.564Z,97.967529
2022-09-02T00:52:43.220Z,97.967529
2022-09-02T00:53:53.882Z,97.869873
2022-09-02T00:55:02.540Z,97.808838
2022-09-02T00:56:09.200Z,98.016357
2022-09-02T00:57:18.850Z,98.114014
2022-09-02T00:58:27.524Z,98.016357
2022-09-02T00:59:35.254Z,98.114014
2022-09-02T01:00:44.008Z,98.321533
2022-09-02T01:01:52.671Z,98.425293
2022-09-02T01:03:02.272Z,98.425293
2022-09-02T01:04:09.929Z,98.425293
2022-09-02T01:05:18.590Z,98.425293
2022-09-02T01:06:28.270Z,98.321533
2022-09-02T01:07:36.924Z,98.217773
2022-09-02T01:08:45.586Z,98.217773
2022-09-02T01:09:55.255Z,98.425293
2022-09-02T01:11:06.463Z,98.425293
2022-09-02T01:12:14.620Z,98.425293
2022-09-02T01:13:23.303Z,98.321533
2022-09-02T01:14:31.955Z,98.217773
2022-09-02T01:15:41.634Z,98.217773
2022-09-02T01:16:50.292Z,98.217773
2022-09-02T01:17:59.973Z,98.217773
2022-09-02T01:19:08.681Z,98.321533
2022-09-02T01:20:17.330Z,98.425293
2022-09-02T01:21:27.984Z,98.626709
2022-09-02T01:22:36.660Z,98.626709
2022-09-02T01:23:44.324Z,98.626709
2022-09-02T01:24:53.966Z,98.626709
2022-09-02T01:26:02.611Z,98.626709
2022-09-02T01:27:11.271Z,98.626709
2022-09-02T01:28:21.045Z,98.522949
2022-09-02T01:29:29.686Z,98.522949
2022-09-02T01:30:39.335Z,98.522949
2022-09-02T01:31:47.068Z,98.730469
2022-09-02T01:32:54.700Z,98.828125
2022-09-02T01:34:04.384Z,98.730469
2022-09-02T01:35:13.054Z,98.730469
2022-09-02T01:36:21.712Z,98.828125
2022-09-02T01:37:30.384Z,98.730469
2022-09-02T01:38:39.037Z,98.773193
2022-09-02T01:39:48.711Z,98.773193
2022-09-02T01:40:57.369Z,98.773193
2022-09-02T01:42:05.045Z,98.773193
2022-09-02T01:43:14.696Z,98.675537
2022-09-02T01:44:23.401Z,98.773193
2022-09-02T01:45:33.177Z,98.876953
2022-09-02T01:46:42.864Z,98.876953
2022-09-02T01:47:52.502Z,98.980713
2022-09-02T01:49:02.196Z,98.980713
2022-09-02T01:50:10.854Z,99.182129
2022-09-02T01:51:19.553Z,99.389648
2022-09-02T01:52:29.203Z,99.536133
2022-09-02T01:53:37.855Z,99.536133
2022-09-02T01:54:46.501Z,99.639893
2022-09-02T01:55:55.167Z,99.639893
2022-09-02T01:57:04.835Z,99.639893
2022-09-02T01:58:14.506Z,99.737549
2022-09-02T01:59:22.154Z,99.841309
2022-09-02T02:00:30.840Z,99.841309
2022-09-02T02:01:40.589Z,99.841309
2022-09-02T02:02:50.213Z,99.945068
2022-09-02T02:03:58.865Z,99.945068
2022-09-02T02:05:07.515Z,99.945068
2022-09-02T02:06:16.170Z,99.945068
2022-09-02T02:07:25.829Z,99.945068
2022-09-02T02:08:33.513Z,99.945068
2022-09-02T02:09:42.200Z,99.945068
2022-09-02T02:10:51.851Z,99.841309
2022-09-02T02:12:00.488Z,99.841309
2022-09-02T02:13:10.143Z,99.841309
2022-09-02T02:14:18.928Z,99.945068
2022-09-02T02:16:29.109Z,99.945068
2022-09-02T02:17:36.619Z,99.841309
2022-09-02T02:18:45.274Z,99.890137
2022-09-02T02:19:54.972Z,99.987793
2022-09-02T02:21:03.639Z,99.987793
2022-09-02T02:22:12.306Z,99.987793
2022-09-02T02:23:22.076Z,99.993896
2022-09-02T02:24:30.613Z,99.993896
2022-09-02T02:25:40.308Z,99.993896
2022-09-02T02:26:47.947Z,99.993896
2022-09-02T02:27:56.606Z,99.993896
2022-09-02T02:29:07.265Z,99.993896
2022-09-02T02:30:16.916Z,99.993896
2022-09-02T02:31:25.770Z,99.993896
2022-09-02T02:32:34.393Z,99.993896
2022-09-02T02:33:43.048Z,99.993896
2022-09-02T02:34:52.708Z,99.993896
2022-09-02T02:36:01.381Z,99.993896
2022-09-02T02:37:11.058Z,99.993896
2022-09-02T02:38:19.712Z,99.993896
2022-09-02T02:39:27.417Z,99.993896
2022-09-02T02:40:37.139Z,99.993896
2022-09-02T02:41:46.704Z,99.993896
2022-09-02T02:42:56.378Z,99.993896
2022-09-02T02:44:05.051Z,99.993896
2022-09-02T02:45:15.021Z,99.993896
2022-09-02T02:46:24.379Z,99.993896
2022-09-02T02:47:32.999Z,99.993896
2022-09-02T02:48:42.776Z,99.993896
2022-09-02T02:49:52.467Z,99.993896
2022-09-02T02:51:02.120Z,99.993896
2022-09-02T02:52:11.818Z,99.993896
2022-09-02T02:53:20.459Z,99.993896
2022-09-02T02:54:35.032Z,99.993896
2022-09-02T02:55:39.754Z,99.993896
2022-09-02T02:56:47.399Z,99.993896
2022-09-02T02:57:56.056Z,99.993896
2022-09-02T02:59:05.723Z,99.993896
2022-09-02T03:00:14.392Z,99.993896
2022-09-02T03:01:23.111Z,99.993896
2022-09-02T03:02:32.833Z,99.993896
2022-09-02T03:03:42.406Z,99.993896
2022-09-02T03:04:52.072Z,99.993896
2022-09-02T03:06:01.783Z,99.993896
2022-09-02T03:07:09.452Z,99.993896
2022-09-02T03:08:19.106Z,99.993896
2022-09-02T03:09:27.758Z,99.993896
2022-09-02T03:10:36.410Z,99.993896
2022-09-02T03:11:45.087Z,99.993896
2022-09-02T03:12:53.777Z,99.993896
2022-09-02T03:14:03.452Z,99.993896
2022-09-02T03:15:12.111Z,99.993896
2022-09-02T03:16:19.973Z,99.993896
2022-09-02T03:17:29.433Z,99.993896
2022-09-02T03:18:38.092Z,99.993896
2022-09-02T03:19:46.751Z,99.993896
2022-09-02T03:20:55.413Z,99.993896
2022-09-02T03:22:05.071Z,99.993896
2022-09-02T03:23:14.858Z,99.993896
2022-09-02T03:24:23.416Z,99.993896
2022-09-02T03:25:35.671Z,99.993896
2022-09-02T03:26:43.686Z,99.993896
2022-09-02T03:27:53.341Z,99.993896
2022-09-02T03:29:02.122Z,99.993896
2022-09-02T03:30:10.791Z,99.993896
2022-09-02T03:31:19.525Z,99.993896
2022-09-02T03:32:30.554Z,99.993896
2022-09-02T03:33:37.736Z,99.993896
2022-09-02T03:34:46.542Z,99.993896
2022-09-02T03:35:56.266Z,99.993896
2022-09-02T03:37:04.932Z,99.993896
2022-09-02T03:38:13.589Z,99.993896
2022-09-02T03:39:22.257Z,99.993896
2022-09-02T03:40:30.978Z,99.993896
2022-09-02T03:41:40.604Z,99.993896
2022-09-02T03:42:49.262Z,99.993896
2022-09-02T03:43:57.950Z,99.993896
2022-09-02T03:45:07.604Z,99.993896
2022-09-02T03:46:16.335Z,99.993896
2022-09-02T03:47:24.948Z,99.993896
2022-09-02T03:48:33.610Z,99.993896
2022-09-02T03:49:43.695Z,99.993896
2022-09-02T03:50:51.923Z,99.993896
2022-09-02T03:51:59.604Z,99.993896
2022-09-02T03:53:08.300Z,99.993896
2022-09-02T03:54:18.959Z,99.993896
2022-09-02T03:55:26.601Z,99.993896
2022-09-02T03:56:36.372Z,99.993896
2022-09-02T03:57:45.055Z,99.993896
2022-09-02T03:58:53.708Z,99.993896
2022-09-02T04:00:03.384Z,99.993896
2022-09-02T04:01:11.085Z,99.993896
2022-09-02T04:02:18.883Z,99.993896
2022-09-02T04:03:28.411Z,99.993896
2022-09-02T04:04:38.087Z,99.993896
2022-09-02T04:05:46.753Z,99.993896
2022-09-02T04:06:56.425Z,99.993896
2022-09-02T04:08:06.091Z,99.993896
2022-09-02T04:09:15.793Z,99.993896
2022-09-02T04:10:24.443Z,99.993896
2022-09-02T04:11:32.105Z,99.993896
2022-09-02T04:12:41.785Z,99.993896
2022-09-02T04:13:50.421Z,99.993896
2022-09-02T04:14:58.103Z,99.993896
2022-09-02T04:16:07.806Z,99.993896
2022-09-02T04:17:17.426Z,99.993896
2022-09-02T04:18:26.079Z,99.993896
2022-09-02T04:19:34.716Z,99.993896
2022-09-02T04:20:43.394Z,99.993896
2022-09-02T04:21:53.090Z,99.993896
2022-09-02T04:23:01.777Z,99.993896
2022-09-02T04:24:10.410Z,99.993896
2022-09-02T04:25:19.075Z,99.993896
2022-09-02T04:26:29.738Z,99.993896
2022-09-02T04:27:39.404Z,99.993896
2022-09-02T04:28:47.082Z,99.993896
2022-09-02T04:29:54.776Z,99.993896
2022-09-02T04:31:04.483Z,99.993896
2022-09-02T04:32:12.137Z,99.993896
2022-09-02T04:33:21.903Z,99.993896
2022-09-02T04:34:30.482Z,99.993896
2022-09-02T04:35:40.140Z,99.993896
2022-09-02T04:36:49.824Z,99.993896
2022-09-02T04:37:58.497Z,99.993896
2022-09-02T04:39:08.162Z,99.993896
2022-09-02T04:40:14.854Z,99.993896
2022-09-02T04:41:23.458Z,99.993896
2022-09-02T04:42:33.146Z,99.993896
2022-09-02T04:43:41.855Z,99.993896
2022-09-02T04:44:50.518Z,99.993896
2022-09-02T04:45:59.240Z,99.993896
2022-09-02T04:47:07.875Z,99.993896
2022-09-02T04:48:17.539Z,99.993896
2022-09-02T04:49:27.241Z,99.993896
2022-09-02T04:50:35.917Z,99.993896
2022-09-02T04:51:45.581Z,99.993896
2022-09-02T04:52:54.304Z,99.993896
2022-09-02T04:54:03.005Z,99.993896
2022-09-02T04:55:12.857Z,99.993896
2022-09-02T04:56:21.498Z,99.993896
2022-09-02T04:57:31.160Z,99.993896
2022-09-02T04:58:38.819Z,99.993896
2022-09-02T04:59:47.479Z,99.993896
2022-09-02T05:00:57.169Z,99.993896
2022-09-02T05:02:05.937Z,99.993896
2022-09-02T05:03:14.564Z,99.993896
2022-09-02T05:04:24.182Z,99.993896
2022-09-02T05:05:31.852Z,99.993896
2022-09-02T05:06:44.236Z,99.993896
2022-09-02T05:07:51.160Z,99.993896
2022-09-02T05:08:58.847Z,99.993896
2022-09-02T05:10:08.511Z,99.993896
2022-09-02T05:11:17.159Z,99.993896
2022-09-02T05:12:24.864Z,99.993896
2022-09-02T05:13:33.521Z,99.993896
2022-09-02T05:14:42.193Z,99.993896
2022-09-02T05:15:51.890Z,99.993896
2022-09-02T05:17:03.951Z,99.993896
2022-09-02T05:18:09.221Z,99.993896
2022-09-02T05:19:18.887Z,99.993896
2022-09-02T05:20:27.605Z,99.993896
2022-09-02T05:21:36.276Z,99.993896
2022-09-02T05:22:44.013Z,99.993896
2022-09-02T05:23:54.501Z,99.993896
2022-09-02T05:25:02.420Z,99.993896
2022-09-02T05:26:10.133Z,99.993896
2022-09-02T05:27:17.791Z,99.993896
2022-09-02T05:28:27.451Z,99.993896
2022-09-02T05:29:37.140Z,99.993896
2022-09-02T05:30:46.817Z,99.993896
2022-09-02T05:31:55.467Z,99.993896
2022-09-02T05:33:05.126Z,99.993896
2022-09-02T05:34:15.794Z,99.993896
2022-09-02T05:35:24.603Z,99.993896
2022-09-02T05:36:32.239Z,99.993896
2022-09-02T05:37:41.934Z,99.993896
2022-09-02T05:38:50.631Z,99.993896
2022-09-02T05:40:00.306Z,99.993896
2022-09-02T05:41:09.120Z,99.993896
2022-09-02T05:42:17.781Z,99.993896
2022-09-02T05:43:27.441Z,99.993896
2022-09-02T05:44:36.096Z,99.993896
2022-09-02T05:45:43.812Z,99.993896
2022-09-02T05:46:53.434Z,99.993896
2022-09-02T05:48:02.100Z,99.993896
2022-09-02T05:49:10.778Z,99.993896
2022-09-02T05:50:19.441Z,99.993896
2022-09-02T05:51:29.113Z,99.993896
2022-09-02T05:52:38.853Z,99.993896
2022-09-02T05:53:46.548Z,99.993896
2022-09-02T05:54:55.366Z,99.993896
2022-09-02T05:56:05.093Z,99.993896
2022-09-02T05:57:13.747Z,99.993896
2022-09-02T05:58:22.581Z,99.993896
2022-09-02T05:59:31.256Z,99.993896
2022-09-02T06:00:39.943Z,99.993896
2022-09-02T06:01:49.640Z,99.993896
2022-09-02T06:02:57.304Z,99.993896
2022-09-02T06:04:04.950Z,99.993896
2022-09-02T06:05:13.619Z,99.993896
2022-09-02T06:06:22.297Z,99.993896
2022-09-02T06:07:30.974Z,99.993896
2022-09-02T06:08:40.652Z,99.993896
2022-09-02T06:09:49.332Z,99.993896
2022-09-02T06:10:59.021Z,99.993896
2022-09-02T06:12:07.680Z,99.993896
2022-09-02T06:13:16.327Z,99.993896
2022-09-02T06:14:26.019Z,99.993896
2022-09-02T06:15:34.743Z,99.993896
2022-09-02T06:16:44.390Z,99.993896
2022-09-02T06:17:53.061Z,99.993896
2022-09-02T06:19:01.719Z,99.993896
2022-09-02T06:20:11.372Z,99.993896
2022-09-02T06:21:22.076Z,99.993896
2022-09-02T06:22:29.722Z,99.993896
2022-09-02T06:23:39.396Z,99.993896
2022-09-02T06:24:48.057Z,99.993896
2022-09-02T06:25:57.735Z,99.914551
2022-09-02T06:27:07.421Z,99.810791
2022-09-02T06:28:16.108Z,99.768066
2022-09-02T06:29:24.784Z,99.768066
2022-09-02T06:30:33.446Z,99.768066
2022-09-02T06:31:43.098Z,99.664307
2022-09-02T06:32:51.862Z,99.359131
2022-09-02T06:34:01.533Z,99.212646
2022-09-02T06:35:11.254Z,98.803711
2022-09-02T06:36:20.925Z,98.699951
2022-09-02T06:37:30.565Z,98.602295
2022-09-02T06:38:42.617Z,98.699951
2022-09-02T06:39:48.959Z,98.754883
2022-09-02T06:40:59.629Z,98.553467
2022-09-02T06:42:07.279Z,98.199463
2022-09-02T06:43:14.927Z,97.796631
2022-09-02T06:44:24.730Z,97.290039
2022-09-02T06:45:33.388Z,97.137451
2022-09-02T06:46:43.070Z,96.832275
2022-09-02T06:47:52.743Z,96.533203
2022-09-02T06:49:01.426Z,95.977783
2022-09-02T06:50:11.117Z,95.471191
2022-09-02T06:51:18.819Z,95.220947
2022-09-02T06:52:26.536Z,94.915771
2022-09-02T06:53:36.206Z,94.366455
2022-09-02T06:54:44.851Z,94.366455
2022-09-02T06:55:53.532Z,93.103027
2022-09-02T06:57:02.196Z,92.700195
2022-09-02T06:58:10.877Z,92.248535
2022-09-02T06:59:20.538Z,91.595459
2022-09-02T07:00:29.226Z,91.149902
2022-09-02T07:01:37.221Z,90.240479
2022-09-02T07:02:46.679Z,89.080811
2022-09-02T07:03:55.333Z,88.983154
2022-09-02T07:05:04.024Z,88.83667
2022-09-02T07:06:12.676Z,87.017822
2022-09-02T07:07:21.343Z,86.547852
2022-09-02T07:08:31.020Z,88.171387
2022-09-02T07:09:38.781Z,88.531494
2022-09-02T07:10:46.439Z,87.280273
2022-09-02T07:11:56.120Z,86.529541
2022-09-02T07:13:05.791Z,86.187744
2022-09-02T07:14:14.467Z,85.681152
2022-09-02T07:15:23.120Z,85.339355
2022-09-02T07:16:32.873Z,84.387207
2022-09-02T07:17:42.494Z,84.14917
2022-09-02T07:18:50.190Z,83.642578
2022-09-02T07:19:58.830Z,82.794189
2022-09-02T07:21:08.503Z,81.68335
2022-09-02T07:22:18.795Z,81.549072
2022-09-02T07:23:25.820Z,81.610107
2022-09-02T07:24:34.502Z,80.200195
2022-09-02T07:25:43.157Z,79.595947
2022-09-02T07:26:53.607Z,79.455566
2022-09-02T07:28:02.500Z,78.851318
2022-09-02T07:29:12.233Z,79.516602
2022-09-02T07:30:21.906Z,79.016113
2022-09-02T07:31:30.564Z,78.070068
2022-09-02T07:32:39.229Z,77.331543
2022-09-02T07:33:49.930Z,77.429199
2022-09-02T07:34:57.587Z,77.233887
2022-09-02T07:36:11.032Z,76.489258
2022-09-02T07:37:17.939Z,76.690674
2022-09-02T07:38:28.598Z,75.854492
2022-09-02T07:39:38.279Z,74.346924
2022-09-02T07:40:47.953Z,75.012207
2022-09-02T07:41:57.657Z,75.109863
2022-09-02T07:43:07.338Z,74.87793
2022-09-02T07:44:16.026Z,73.974609
2022-09-02T07:45:25.704Z,73.132324
2022-09-02T07:46:33.387Z,73.840332
2022-09-02T07:47:42.306Z,73.736572
2022-09-02T07:48:51.866Z,73.199463
2022-09-02T07:51:10.168Z,72.601318
2022-09-02T07:52:18.859Z,73.199463
2022-09-02T07:53:28.549Z,72.766113
2022-09-02T07:54:38.285Z,71.929932
2022-09-02T07:55:47.003Z,71.929932
2022-09-02T07:56:55.679Z,70.123291
2022-09-02T07:58:05.334Z,69.793701
2022-09-02T07:59:14.021Z,68.688965
2022-09-02T08:00:22.734Z,68.920898
2022-09-02T08:01:31.487Z,68.42041
2022-09-02T08:02:41.177Z,68.621826
2022-09-02T08:03:50.713Z,69.32373
2022-09-02T08:04:58.559Z,70.623779
2022-09-02T08:06:07.229Z,70.892334
2022-09-02T08:07:16.890Z,68.792725
2022-09-02T08:08:25.571Z,68.756104
2022-09-02T08:09:34.238Z,68.359375
2022-09-02T08:10:42.934Z,66.656494
2022-09-02T08:11:51.588Z,67.456055
2022-09-02T08:13:01.274Z,65.820312
2022-09-02T08:14:08.983Z,67.987061
2022-09-02T08:15:16.638Z,69.390869
2022-09-02T08:16:26.355Z,67.956543
2022-09-02T08:17:35.993Z,67.181396
2022-09-02T08:18:44.652Z,67.419434
2022-09-02T08:19:54.311Z,68.31665
2022-09-02T08:21:02.956Z,68.786621
2022-09-02T08:22:12.669Z,66.650391
2022-09-02T08:23:35.923Z,68.42041
2022-09-02T08:24:30.060Z,66.516113
2022-09-02T08:25:39.753Z,65.216064
2022-09-02T08:26:48.421Z,65.887451
2022-09-02T08:27:58.113Z,65.252686
2022-09-02T08:29:07.775Z,65.087891
2022-09-02T08:30:18.144Z,66.052246
2022-09-02T08:31:26.918Z,65.655518
2022-09-02T08:32:35.515Z,64.025879
2022-09-02T08:33:45.178Z,63.922119
2022-09-02T08:34:52.818Z,63.623047
2022-09-02T08:36:00.452Z,63.421631
2022-09-02T08:37:10.121Z,60.577393
2022-09-02T08:38:19.835Z,63.311768
2022-09-02T08:39:28.503Z,62.915039
2022-09-02T08:40:38.260Z,63.580322
2022-09-02T08:41:46.857Z,63.05542
2022-09-02T08:42:56.530Z,62.420654
2022-09-02T08:44:05.191Z,61.322021
2022-09-02T08:45:12.859Z,61.291504
2022-09-02T08:46:22.550Z,60.491943
2022-09-02T08:47:32.191Z,61.090088
2022-09-02T08:48:40.943Z,60.36377
2022-09-02T08:49:49.616Z,59.594727
2022-09-02T08:50:58.422Z,60.693359
2022-09-02T08:52:08.102Z,59.967041
2022-09-02T08:53:16.741Z,59.661865
2022-09-02T08:54:25.385Z,60.437012
2022-09-02T08:55:35.048Z,59.936523
2022-09-02T08:56:43.745Z,61.236572
2022-09-02T08:57:52.473Z,60.003662
2022-09-02T08:59:01.071Z,60.205078
2022-09-02T09:00:10.738Z,59.210205
2022-09-02T09:01:20.461Z,58.410645
2022-09-02T09:02:28.122Z,57.513428
2022-09-02T09:03:36.709Z,59.234619
2022-09-02T09:04:46.422Z,60.107422
2022-09-02T09:05:55.040Z,59.106445
2022-09-02T09:07:03.691Z,59.47876
2022-09-02T09:08:14.478Z,58.782959
2022-09-02T09:09:23.094Z,58.081055
2022-09-02T09:10:32.745Z,57.48291
2022-09-02T09:11:40.415Z,59.277344
2022-09-02T09:12:48.051Z,58.679199
2022-09-02T09:13:57.733Z,58.978271
2022-09-02T09:15:06.365Z,57.48291
2022-09-02T09:16:16.041Z,59.277344
2022-09-02T09:17:25.716Z,60.247803
2022-09-02T09:18:35.409Z,56.68335
2022-09-02T09:19:45.143Z,59.350586
2022-09-02T09:20:52.825Z,58.355713
2022-09-02T09:22:01.470Z,56.359863
2022-09-02T09:23:11.132Z,57.055664
2022-09-02T09:24:19.825Z,57.354736
2022-09-02T09:25:28.513Z,58.056641
2022-09-02T09:26:37.199Z,58.355713
2022-09-02T09:27:46.873Z,56.829834
2022-09-02T09:28:56.543Z,57.952881
2022-09-02T09:30:05.240Z,59.649658
2022-09-02T09:31:13.924Z,58.721924
2022-09-02T09:32:23.555Z,57.897949
2022-09-02T09:33:32.197Z,57.202148
2022-09-02T09:34:40.857Z,56.903076
2022-09-02T09:35:49.535Z,56.207275
2022-09-02T09:36:59.234Z,57.769775
2022-09-02T09:38:08.940Z,56.677246
2022-09-02T09:39:17.616Z,57.348633
2022-09-02T09:40:26.341Z,54.980469
2022-09-02T09:41:34.958Z,55.786133
2022-09-02T09:42:49.201Z,58.007812
2022-09-02T09:43:55.303Z,58.306885
2022-09-02T09:45:03.965Z,58.978271
2022-09-02T09:46:12.659Z,57.086182
2022-09-02T09:47:22.317Z,57.952881
2022-09-02T09:48:29.999Z,59.124756
2022-09-02T09:49:37.670Z,58.068848
2022-09-02T09:50:47.324Z,57.843018
2022-09-02T09:51:56.991Z,54.528809
2022-09-02T09:53:05.654Z,53.039551
2022-09-02T09:54:14.463Z,52.789307
2022-09-02T09:55:25.026Z,55.706787
2022-09-02T09:56:36.925Z,55.133057
2022-09-02T09:57:44.571Z,55.957031
2022-09-02T09:58:52.082Z,54.962158
2022-09-02T10:00:01.812Z,56.658936
2022-09-02T10:01:10.559Z,56.530762
2022-09-02T10:02:20.245Z,54.907227
2022-09-02T10:03:32.844Z,54.382324
2022-09-02T10:04:45.663Z,55.407715
2022-09-02T10:05:49.214Z,54.211426
2022-09-02T10:06:56.897Z,55.316162
2022-09-02T10:08:04.550Z,56.787109
2022-09-02T10:09:15.209Z,57.983398
2022-09-02T10:10:24.917Z,54.516602
2022-09-02T10:11:34.764Z,56.738281
2022-09-02T10:12:43.427Z,57.684326
2022-09-02T10:13:52.097Z,54.663086
2022-09-02T10:15:01.806Z,55.26123
2022-09-02T10:16:09.521Z,55.432129
2022-09-02T10:17:18.213Z,56.506348
2022-09-02T10:18:27.902Z,55.236816
2022-09-02T10:19:36.562Z,54.711914
2022-09-02T10:20:58.517Z,54.11377
2022-09-02T10:21:56.918Z,53.411865
2022-09-02T10:23:06.603Z,54.3396
2022-09-02T10:24:16.312Z,52.966309
2022-09-02T10:25:25.962Z,53.790283
2022-09-02T10:26:35.704Z,56.359863
2022-09-02T10:27:44.346Z,54.833984
2022-09-02T10:28:54.010Z,55.407715
2022-09-02T10:30:04.695Z,52.618408
2022-09-02T10:31:13.400Z,53.741455
2022-09-02T10:32:23.055Z,55.0354
2022-09-02T10:33:31.751Z,54.80957
2022-09-02T10:34:41.453Z,53.78418
2022-09-02T10:35:51.130Z,53.436279
2022-09-02T10:36:59.790Z,53.039551
2022-09-02T10:38:08.460Z,53.411865
2022-09-02T10:39:18.127Z,51.843262
2022-09-02T10:40:26.868Z,52.23999
2022-09-02T10:41:35.504Z,53.338623
2022-09-02T10:42:45.159Z,51.025391
2022-09-02T10:43:56.851Z,52.319336
2022-09-02T10:45:03.495Z,53.710938
2022-09-02T10:46:11.233Z,53.314209
2022-09-02T10:47:18.878Z,51.422119
2022-09-02T10:48:29.538Z,53.637695
2022-09-02T10:49:38.186Z,53.112793
2022-09-02T10:50:48.160Z,53.491211
2022-09-02T10:51:57.575Z,52.862549
2022-09-02T10:53:08.735Z,51.843262
2022-09-02T10:54:16.980Z,51.818848
2022-09-02T10:55:25.655Z,51.794434
2022-09-02T10:56:34.320Z,51.672363
2022-09-02T10:57:44.108Z,50.354004
2022-09-02T10:58:53.812Z,50.854492
2022-09-02T11:00:02.442Z,51.025391
2022-09-02T11:01:11.154Z,50.256348
2022-09-02T11:02:19.785Z,50.854492
2022-09-02T11:03:29.544Z,51.147461
2022-09-02T11:04:38.146Z,49.859619
2022-09-02T11:05:45.822Z,50.030518
2022-09-02T11:07:03.606Z,48.840332
2022-09-02T11:08:06.145Z,48.64502
2022-09-02T11:09:15.890Z,49.041748
2022-09-02T11:10:24.527Z,50.32959
2022-09-02T11:11:33.203Z,49.737549
2022-09-02T11:12:42.859Z,47.772217
2022-09-02T11:13:49.559Z,50.726318
2022-09-02T11:14:58.257Z,51.220703
2022-09-02T11:16:07.973Z,49.804688
2022-09-02T11:17:17.551Z,50.775146
2022-09-02T11:18:27.217Z,49.163818
2022-09-02T11:19:36.918Z,49.359131
2022-09-02T11:20:46.622Z,50.354004
2022-09-02T11:21:55.296Z,49.139404
2022-09-02T11:23:03.950Z,48.248291
2022-09-02T11:24:11.605Z,48.742676
2022-09-02T11:25:21.294Z,49.438477
2022-09-02T11:26:30.998Z,49.108887
2022-09-02T11:27:42.964Z,50.604248
2022-09-02T11:28:50.428Z,50.402832
2022-09-02T11:30:00.130Z,48.31543
2022-09-02T11:31:09.808Z,49.658203
2022-09-02T11:32:17.471Z,50.054932
2022-09-02T11:33:27.184Z,49.182129
2022-09-02T11:34:36.869Z,51.568604
2022-09-02T11:35:45.521Z,51.422119
2022-09-02T11:36:55.183Z,49.804688
2022-09-02T11:38:03.965Z,49.932861
2022-09-02T11:39:11.610Z,50.378418
2022-09-02T11:40:34.111Z,52.23999
2022-09-02T11:41:35.727Z,52.093506
2022-09-02T11:42:41.592Z,51.373291
2022-09-02T11:43:51.367Z,50.45166
2022-09-02T11:44:58.966Z,49.560547
2022-09-02T11:46:06.674Z,49.560547
2022-09-02T11:47:15.338Z,51.397705
2022-09-02T11:48:24.132Z,50.384521
2022-09-02T11:49:32.678Z,49.963379
2022-09-02T11:50:42.342Z,48.748779
2022-09-02T11:51:51.006Z,48.626709
2022-09-02T11:53:00.692Z,49.121094
2022-09-02T11:54:09.339Z,48.303223
2022-09-02T11:55:20.023Z,46.246338
2022-09-02T11:56:29.705Z,47.283936
2022-09-02T11:57:38.396Z,48.150635
2022-09-02T11:58:47.112Z,46.765137
2022-09-02T11:59:56.803Z,47.65625
2022-09-02T12:01:05.570Z,47.460938
2022-09-02T12:02:16.275Z,48.22998
2022-09-02T12:03:58.608Z,46.624756
2022-09-02T12:05:46.332Z,48.10791
2022-09-02T12:06:55.973Z,46.228027
2022-09-02T12:08:05.540Z,46.282959
2022-09-02T12:09:15.237Z,46.875
2022-09-02T12:10:23.927Z,45.88623
2022-09-02T12:11:33.630Z,47.271729
2022-09-02T12:12:41.332Z,46.850586
2022-09-02T12:14:59.676Z,46.398926
2022-09-02T12:16:08.392Z,46.99707
2022-09-02T12:17:17.063Z,46.777344
2022-09-02T12:18:26.885Z,45.788574
2022-09-02T12:19:35.544Z,46.777344
2022-09-02T12:20:49.341Z,46.282959
2022-09-02T12:21:55.870Z,47.766113
2022-09-02T12:23:05.572Z,45.092773
2022-09-02T12:24:13.279Z,46.453857
2022-09-02T12:25:22.966Z,45.269775
2022-09-02T12:26:32.661Z,45.074463
2022-09-02T12:27:42.337Z,46.160889
2022-09-02T12:28:50.992Z,44.970703
2022-09-02T12:29:59.684Z,44.696045
2022-09-02T12:31:08.511Z,44.799805
2022-09-02T12:32:19.070Z,46.282959
2022-09-02T12:33:28.799Z,45.788574
2022-09-02T12:34:36.453Z,45.568848
2022-09-02T12:35:46.174Z,46.063232
2022-09-02T12:36:54.883Z,44.458008
2022-09-02T12:38:04.565Z,46.014404
2022-09-02T12:39:14.231Z,43.548584
2022-09-02T12:40:22.964Z,45.007324
2022-09-02T12:41:33.581Z,45.10498
2022-09-02T12:42:42.221Z,46.289062
2022-09-02T12:43:51.860Z,44.293213
2022-09-02T12:45:01.518Z,44.665527
2022-09-02T12:46:11.180Z,44.073486
2022-09-02T12:47:19.887Z,43.383789
2022-09-02T12:48:30.358Z,43.878174
2022-09-02T12:49:37.182Z,43.780518
2022-09-02T12:50:46.857Z,43.109131
2022-09-02T12:51:55.542Z,44.98291
2022-09-02T12:53:03.220Z,45.080566
2022-09-02T12:54:11.892Z,43.902588
2022-09-02T12:55:20.560Z,45.324707
2022-09-02T12:56:30.193Z,44.610596
2022-09-02T12:57:38.855Z,45.446777
2022-09-02T12:58:48.547Z,44.927979
2022-09-02T12:59:58.211Z,46.112061
2022-09-02T13:01:05.861Z,44.488525
2022-09-02T13:02:14.533Z,44.390869
2022-09-02T13:03:24.325Z,45.794678
2022-09-02T13:04:34.140Z,44.219971
2022-09-02T13:05:42.825Z,46.905518
2022-09-02T13:06:52.482Z,46.112061
2022-09-02T13:08:02.398Z,45.404053
2022-09-02T13:09:11.809Z,44.610596
2022-09-02T13:10:21.497Z,44.787598
2022-09-02T13:11:30.127Z,44.567871
2022-09-02T13:12:39.825Z,44.0979
2022-09-02T13:13:48.477Z,44.140625